»·PEaware :: UAL1976 KSAN-KLAX

UAL1976 :: KSAN-KLAX

FLIGHT INFORMATION

Flight Status: Arrived
Operator:
United Airlines
More flights by this operator :: More flights under this callsign
Pilot: Dexter G. (2667)
Aircraft: AIRBUS A320
(A320)
More flights by this aircraft type
Origin: KSAN San Diego Intl-Lindbergh
United States
Destination: KLAX Los Angeles Intl
United States
More flights between these airports :: More routes between these airports
Route: +CWARD1 SLI
File this flight plan on PilotEdge
Remarks:
Altitude:
(Current/Filed)
12,000ft
Speed:
(Current/Filed)
350kts
Departed: 24-Sep-17 02:14 PM
Arrived: 24-Sep-17 02:42 PM
Distance/Time
Traveled:
94nm/0:28
Distance/Time
To Go:
Arrived

Flight Plot

Page will automatically refresh every two minutes.

Flight plan parsing failed; only flown route is shown


Map Options




Map Legend


Flown Route
Filed Route
Departure Airport
Arrival Airport
Navaid (VOR, NDB)
Fix

Horizontal Profiles

Position Reports

Time Latitude Longitude Heading Altitude Ground
Speed
24-Sep-17 13:46 32.733735 -117.199023 149 29ft 0kts
24-Sep-17 13:47 32.733735 -117.199023 149 29ft 0kts
24-Sep-17 13:48 32.733735 -117.199023 149 29ft 0kts
24-Sep-17 13:49 32.733735 -117.199023 149 29ft 0kts
24-Sep-17 13:50 32.733735 -117.199023 149 29ft 0kts
24-Sep-17 13:51 32.733735 -117.199023 149 29ft 0kts
24-Sep-17 13:52 32.733735 -117.199023 149 29ft 0kts
24-Sep-17 13:53 32.733735 -117.199023 149 29ft 0kts
24-Sep-17 13:54 32.733735 -117.199023 149 29ft 0kts
24-Sep-17 13:55 32.733735 -117.199023 149 29ft 0kts
24-Sep-17 13:56 32.733735 -117.199023 149 29ft 0kts
24-Sep-17 13:57 32.733735 -117.199023 149 29ft 0kts
24-Sep-17 13:58 32.733735 -117.199023 149 29ft 0kts
24-Sep-17 13:59 32.733735 -117.199023 149 29ft 0kts
24-Sep-17 14:00 32.733735 -117.199023 149 29ft 0kts
24-Sep-17 14:01 32.734245 -117.199381 149 29ft 0kts
24-Sep-17 14:02 32.734244 -117.199380 149 29ft 0kts
24-Sep-17 14:03 32.734244 -117.199380 149 29ft 0kts
24-Sep-17 14:04 32.734243 -117.199380 149 29ft 0kts
24-Sep-17 14:05 32.734243 -117.199379 149 29ft 0kts
24-Sep-17 14:06 32.734242 -117.199379 149 29ft 0kts
24-Sep-17 14:07 32.734241 -117.199378 149 29ft 0kts
24-Sep-17 14:08 32.734241 -117.199378 149 29ft 0kts
24-Sep-17 14:09 32.734521 -117.198506 76 29ft 10kts
24-Sep-17 14:10 32.732963 -117.191489 106 29ft 28kts
24-Sep-17 14:11 32.730803 -117.182595 106 29ft 27kts
24-Sep-17 14:12 32.729498 -117.176859 79 29ft 0kts
24-Sep-17 14:13 32.729498 -117.176858 79 29ft 0kts
24-Sep-17 14:14 32.729499 -117.176857 79 29ft 0kts
24-Sep-17 14:15 32.729499 -117.176857 79 29ft 0kts
24-Sep-17 14:16 32.729499 -117.176856 79 29ft 0kts
24-Sep-17 14:17 32.730507 -117.177009 287 29ft 28kts
24-Sep-17 14:18 32.738722 -117.212162 287 961ft 140kts
24-Sep-17 14:19 32.763907 -117.259292 307 2723ft 225kts
24-Sep-17 14:20 32.805458 -117.327941 309 6505ft 273kts
24-Sep-17 14:21 32.853693 -117.402178 308 9905ft 287kts
24-Sep-17 14:22 32.901973 -117.477065 307 10005ft 285kts
24-Sep-17 14:23 32.950081 -117.551903 307 10006ft 284kts
24-Sep-17 14:24 32.998261 -117.626990 307 10006ft 284kts
24-Sep-17 14:25 33.046186 -117.701840 307 10010ft 284kts
24-Sep-17 14:26 33.101701 -117.768168 319 10013ft 284kts
24-Sep-17 14:27 33.161987 -117.829334 319 10013ft 284kts
24-Sep-17 14:28 33.231236 -117.870862 346 10014ft 284kts
24-Sep-17 14:29 33.308669 -117.890404 347 10011ft 284kts
24-Sep-17 14:30 33.386174 -117.910213 344 9337ft 278kts
24-Sep-17 14:31 33.457602 -117.935938 342 8345ft 264kts
24-Sep-17 14:32 33.526567 -117.961025 342 7471ft 249kts
24-Sep-17 14:33 33.590632 -117.984334 342 7007ft 233kts
24-Sep-17 14:34 33.653102 -118.007143 342 6992ft 235kts
24-Sep-17 14:35 33.715976 -118.030093 342 6976ft 234kts
24-Sep-17 14:36 33.778601 -118.052974 342 6978ft 235kts
24-Sep-17 14:37 33.843750 -118.052932 2 6738ft 234kts
24-Sep-17 14:38 33.908148 -118.048873 2 6099ft 227kts
24-Sep-17 14:39 33.970725 -118.045095 1 5242ft 223kts
24-Sep-17 14:40 33.995026 -118.097284 244 3990ft 217kts
24-Sep-17 14:41 33.974069 -118.146957 242 3084ft 210kts
24-Sep-17 14:42 33.955933 -118.209433 259 2918ft 194kts
24-Sep-17 14:43 33.948859 -118.270570 262 1968ft 174kts
24-Sep-17 14:44 33.943373 -118.324231 259 1105ft 144kts
24-Sep-17 14:45 33.938680 -118.368520 263 342ft 127kts
24-Sep-17 14:46 33.935416 -118.402106 265 140ft 34kts
24-Sep-17 14:47 33.935821 -118.406231 286 140ft 0kts
24-Sep-17 14:48 33.935905 -118.407528 263 140ft 10kts
24-Sep-17 14:49 33.937754 -118.409231 352 140ft 0kts
24-Sep-17 14:50 33.937754 -118.409231 352 140ft 0kts
24-Sep-17 14:51 33.938661 -118.408952 73 140ft 12kts
24-Sep-17 14:52 33.939363 -118.402258 82 140ft 20kts
24-Sep-17 14:53 33.940612 -118.398414 320 140ft 8kts
24-Sep-17 14:54 33.941071 -118.399148 306 140ft 0kts
24-Sep-17 14:55 33.941071 -118.399148 306 140ft 0kts

Navigation Log

Ident Type
Flight plan parsing failed, navigation log unavailable